Eastpoint, FL (32328)

11:42 AM EDT on October 21, 2014 (GMT -0400)
MesoWest NERRS METEOROLOGICAL SITE AT EAS FL US | Change Station
CLOSE
Current Station
Personal Weather Station
Location: Eastpoint, FL
Elevation: 16 ft
Nearby Weather Stations

Elev 16 ft 29.79 °N, 84.88 °W | Updated 57 minutes ago

Partly Cloudy
Partly Cloudy
72 °F
Feels Like 75 °F
N
6
Wind Variable Wind from NNE
Gusts 9.0 mph

Today
High -- | Low -- °F
--% Chance of Precip.
Yesterday
High -- | Low -- °F
Precip. -- in
7:45 AM 7:02 PM
Waning Crescent, 5% visible
Pressure 30.01 in
Visibility 10.0 miles
Clouds Scattered Clouds 3100 ft
Heat Index 75 °F
Dew Point 62 °F
Humidity 70%
Rainfall -999.00 in
Snow Depth Not available.
UV 4 out of 12
Pollen 4.90 out of 12
Air Quality Not available.
Flu Activity Local Activity
METAR KAAF 211453Z AUTO 06008KT 10SM SCT031 24/15 A3001 RMK AO2 SLP163 T02390150 51011 TSNO

More Conditions Fewer Conditions

Pressure 30.01 in
Visibility 10.0 miles
Clouds Scattered Clouds 3100 ft
Heat Index 75 °F
Dew Point 62 °F
Humidity 70%
Rainfall -999.00 in
Snow Depth Not available.
UV 4 out of 12
Pollen 4.90 out of 12
Air Quality Not available.
Flu Activity Local Activity
METAR KAAF 211453Z AUTO 06008KT 10SM SCT031 24/15 A3001 RMK AO2 SLP163 T02390150 51011 TSNO

More Conditions Fewer Conditions

10-Day Weather Forecast

Almanac

Astronomy

Oct. 21, 2014 Rise Set
Actual Time 7:45 AM EDT 7:02 PM EDT
Civil Twilight 7:21 AM EDT 7:27 PM EDT
Nautical Twilight 6:53 AM EDT 7:54 PM EDT
Astronomical Twilight 6:25 AM EDT 8:22 PM EDT
Moon 5:38 AM EDT 5:48 PM EDT
Length of Visible Light 12h 05m
Length of Day
11h 17m
Tomorrow will be 1m 41s shorter.
Waning Crescent, 5% of the Moon is Illuminated
Today
Waning Crescent
Oct 23
New
Oct 30
First Quarter
Nov 6
Full
Nov 14
Last Quarter

Today's Extremes

State Highs State Lows

Community

WunderPhotos

Upload Photos

1,763,700 photos uploaded!

WunderBlogs® & News

Nearby

Snow Depth

Station Depth Elevation
No new snow has been reported.

Earthquake Activity

City Distance Mag. Time & Date
No recent earthquake activity has been reported nearby.
Minimum magnitude displayed is 2.5.

Coastal Water Temperatures

Place Temperature
Apalachicola, FL 73.9 °F
Panama City, FL 75.9 °F
Panama City Beach, FL 78.1 °F

Nearby Weather Stations